sensor_id;sensor_type;location;lat;lon;timestamp;P1;durP1;ratioP1;P2;durP2;ratioP2
1010;SDS011;494;48.744;10.106;2023-02-05T00:01:22;17.52;;;8.95;;
1010;SDS011;494;48.744;10.106;2023-02-05T00:03:51;17.70;;;7.85;;
1010;SDS011;494;48.744;10.106;2023-02-05T00:06:21;13.55;;;6.57;;
1010;SDS011;494;48.744;10.106;2023-02-05T00:08:50;13.13;;;5.90;;
1010;SDS011;494;48.744;10.106;2023-02-05T00:11:19;13.90;;;5.80;;
1010;SDS011;494;48.744;10.106;2023-02-05T00:13:47;16.80;;;5.85;;
1010;SDS011;494;48.744;10.106;2023-02-05T00:16:16;12.90;;;5.80;;
1010;SDS011;494;48.744;10.106;2023-02-05T00:18:48;18.85;;;7.05;;
1010;SDS011;494;48.744;10.106;2023-02-05T00:21:17;18.13;;;8.70;;
1010;SDS011;494;48.744;10.106;2023-02-05T00:23:50;14.70;;;8.02;;
1010;SDS011;494;48.744;10.106;2023-02-05T00:26:18;15.88;;;7.65;;
1010;SDS011;494;48.744;10.106;2023-02-05T00:28:47;16.52;;;8.55;;
1010;SDS011;494;48.744;10.106;2023-02-05T00:31:17;23.73;;;11.77;;
1010;SDS011;494;48.744;10.106;2023-02-05T00:33:48;16.00;;;7.75;;
1010;SDS011;494;48.744;10.106;2023-02-05T00:36:18;16.25;;;7.03;;
1010;SDS011;494;48.744;10.106;2023-02-05T00:38:48;16.58;;;7.70;;
1010;SDS011;494;48.744;10.106;2023-02-05T00:41:18;14.82;;;6.85;;
1010;SDS011;494;48.744;10.106;2023-02-05T00:43:47;14.60;;;6.60;;
1010;SDS011;494;48.744;10.106;2023-02-05T00:46:16;14.05;;;6.90;;
1010;SDS011;494;48.744;10.106;2023-02-05T00:48:44;15.77;;;6.80;;
1010;SDS011;494;48.744;10.106;2023-02-05T00:51:13;15.95;;;6.45;;
1010;SDS011;494;48.744;10.106;2023-02-05T00:53:41;17.92;;;8.25;;
1010;SDS011;494;48.744;10.106;2023-02-05T00:56:11;20.42;;;10.07;;
1010;SDS011;494;48.744;10.106;2023-02-05T00:58:40;29.27;;;11.55;;
1010;SDS011;494;48.744;10.106;2023-02-05T01:01:12;37.58;;;13.77;;
1010;SDS011;494;48.744;10.106;2023-02-05T01:03:42;24.67;;;13.07;;
1010;SDS011;494;48.744;10.106;2023-02-05T01:06:11;35.22;;;14.32;;
1010;SDS011;494;48.744;10.106;2023-02-05T01:08:40;30.00;;;13.90;;
1010;SDS011;494;48.744;10.106;2023-02-05T01:11:09;38.50;;;13.35;;
1010;SDS011;494;48.744;10.106;2023-02-05T01:13:39;26.17;;;13.10;;
1010;SDS011;494;48.744;10.106;2023-02-05T01:16:07;54.35;;;14.52;;
1010;SDS011;494;48.744;10.106;2023-02-05T01:18:37;34.60;;;12.70;;
1010;SDS011;494;48.744;10.106;2023-02-05T01:21:05;48.40;;;13.38;;
1010;SDS011;494;48.744;10.106;2023-02-05T01:23:34;42.45;;;13.43;;
1010;SDS011;494;48.744;10.106;2023-02-05T01:26:02;43.55;;;13.30;;
1010;SDS011;494;48.744;10.106;2023-02-05T01:28:32;34.08;;;13.38;;
1010;SDS011;494;48.744;10.106;2023-02-05T01:31:02;37.13;;;13.73;;
1010;SDS011;494;48.744;10.106;2023-02-05T01:33:31;37.65;;;13.15;;
1010;SDS011;494;48.744;10.106;2023-02-05T01:36:00;29.77;;;11.50;;
1010;SDS011;494;48.744;10.106;2023-02-05T01:38:28;42.33;;;12.10;;
1010;SDS011;494;48.744;10.106;2023-02-05T01:40:57;59.47;;;12.98;;
1010;SDS011;494;48.744;10.106;2023-02-05T01:43:25;42.03;;;12.75;;
1010;SDS011;494;48.744;10.106;2023-02-05T01:48:49;48.20;;;13.05;;
1010;SDS011;494;48.744;10.106;2023-02-05T01:51:25;36.78;;;13.07;;
1010;SDS011;494;48.744;10.106;2023-02-05T01:53:56;52.33;;;12.95;;
1010;SDS011;494;48.744;10.106;2023-02-05T01:56:27;40.80;;;13.05;;
1010;SDS011;494;48.744;10.106;2023-02-05T01:59:01;27.88;;;12.40;;
1010;SDS011;494;48.744;10.106;2023-02-05T02:01:37;55.88;;;14.32;;
1010;SDS011;494;48.744;10.106;2023-02-05T02:04:08;41.75;;;13.30;;
1010;SDS011;494;48.744;10.106;2023-02-05T02:06:40;47.30;;;14.35;;
1010;SDS011;494;48.744;10.106;2023-02-05T02:09:08;48.97;;;14.70;;
1010;SDS011;494;48.744;10.106;2023-02-05T02:11:39;92.38;;;19.25;;
1010;SDS011;494;48.744;10.106;2023-02-05T02:14:10;48.40;;;19.27;;
1010;SDS011;494;48.744;10.106;2023-02-05T02:16:41;42.67;;;17.73;;
1010;SDS011;494;48.744;10.106;2023-02-05T02:19:12;43.80;;;17.70;;
1010;SDS011;494;48.744;10.106;2023-02-05T02:22:03;36.88;;;15.55;;
1010;SDS011;494;48.744;10.106;2023-02-05T02:25:04;40.20;;;14.55;;
1010;SDS011;494;48.744;10.106;2023-02-05T02:28:02;36.60;;;12.98;;
1010;SDS011;494;48.744;10.106;2023-02-05T02:30:38;42.03;;;12.52;;
1010;SDS011;494;48.744;10.106;2023-02-05T02:33:13;61.75;;;14.27;;
1010;SDS011;494;48.744;10.106;2023-02-05T02:35:50;38.67;;;13.30;;
1010;SDS011;494;48.744;10.106;2023-02-05T02:38:28;31.65;;;13.23;;
1010;SDS011;494;48.744;10.106;2023-02-05T02:41:00;27.25;;;11.65;;
1010;SDS011;494;48.744;10.106;2023-02-05T02:43:37;26.58;;;11.40;;
1010;SDS011;494;48.744;10.106;2023-02-05T02:46:17;24.48;;;11.30;;
1010;SDS011;494;48.744;10.106;2023-02-05T02:48:51;21.85;;;10.55;;
1010;SDS011;494;48.744;10.106;2023-02-05T02:51:25;22.80;;;10.20;;
1010;SDS011;494;48.744;10.106;2023-02-05T02:53:57;22.58;;;10.35;;
1010;SDS011;494;48.744;10.106;2023-02-05T02:56:31;20.17;;;10.48;;
1010;SDS011;494;48.744;10.106;2023-02-05T02:59:06;18.48;;;9.95;;
1010;SDS011;494;48.744;10.106;2023-02-05T03:01:38;22.48;;;10.05;;
1010;SDS011;494;48.744;10.106;2023-02-05T03:04:20;21.23;;;9.60;;
1010;SDS011;494;48.744;10.106;2023-02-05T03:06:54;22.92;;;11.07;;
1010;SDS011;494;48.744;10.106;2023-02-05T03:09:33;21.23;;;9.52;;
1010;SDS011;494;48.744;10.106;2023-02-05T03:12:09;21.42;;;10.15;;
1010;SDS011;494;48.744;10.106;2023-02-05T03:14:39;22.00;;;10.15;;
1010;SDS011;494;48.744;10.106;2023-02-05T03:17:08;31.60;;;10.50;;
1010;SDS011;494;48.744;10.106;2023-02-05T03:19:44;24.85;;;11.23;;
1010;SDS011;494;48.744;10.106;2023-02-05T03:22:13;31.50;;;10.95;;
1010;SDS011;494;48.744;10.106;2023-02-05T03:24:42;25.65;;;11.30;;
1010;SDS011;494;48.744;10.106;2023-02-05T03:27:11;28.48;;;10.30;;
1010;SDS011;494;48.744;10.106;2023-02-05T03:29:41;21.73;;;10.38;;
1010;SDS011;494;48.744;10.106;2023-02-05T03:32:13;25.17;;;11.35;;
1010;SDS011;494;48.744;10.106;2023-02-05T03:35:01;23.48;;;11.32;;
1010;SDS011;494;48.744;10.106;2023-02-05T03:37:47;22.83;;;10.32;;
1010;SDS011;494;48.744;10.106;2023-02-05T03:40:39;23.08;;;10.48;;
1010;SDS011;494;48.744;10.106;2023-02-05T03:43:18;22.65;;;10.45;;
1010;SDS011;494;48.744;10.106;2023-02-05T03:46:05;25.67;;;11.23;;
1010;SDS011;494;48.744;10.106;2023-02-05T03:48:45;36.58;;;12.32;;
1010;SDS011;494;48.744;10.106;2023-02-05T03:51:29;30.02;;;11.48;;
1010;SDS011;494;48.744;10.106;2023-02-05T03:54:06;31.40;;;13.05;;
1010;SDS011;494;48.744;10.106;2023-02-05T03:56:45;38.33;;;13.15;;
1010;SDS011;494;48.744;10.106;2023-02-05T03:59:24;66.35;;;14.07;;
1010;SDS011;494;48.744;10.106;2023-02-05T04:01:56;31.20;;;13.23;;
1010;SDS011;494;48.744;10.106;2023-02-05T04:04:25;59.42;;;14.52;;
1010;SDS011;494;48.744;10.106;2023-02-05T04:06:54;50.97;;;13.93;;
1010;SDS011;494;48.744;10.106;2023-02-05T04:09:23;44.65;;;13.60;;
1010;SDS011;494;48.744;10.106;2023-02-05T04:11:52;37.40;;;14.45;;
1010;SDS011;494;48.744;10.106;2023-02-05T04:14:20;34.47;;;14.40;;
1010;SDS011;494;48.744;10.106;2023-02-05T04:16:49;32.15;;;14.40;;
1010;SDS011;494;48.744;10.106;2023-02-05T04:19:19;26.13;;;11.32;;
1010;SDS011;494;48.744;10.106;2023-02-05T04:21:47;25.95;;;11.40;;
1010;SDS011;494;48.744;10.106;2023-02-05T04:24:16;22.42;;;11.45;;
1010;SDS011;494;48.744;10.106;2023-02-05T04:26:44;20.23;;;10.25;;
1010;SDS011;494;48.744;10.106;2023-02-05T04:29:13;17.77;;;9.38;;
1010;SDS011;494;48.744;10.106;2023-02-05T04:31:42;20.52;;;9.73;;
1010;SDS011;494;48.744;10.106;2023-02-05T04:34:10;22.35;;;9.65;;
1010;SDS011;494;48.744;10.106;2023-02-05T04:36:41;19.38;;;9.38;;
1010;SDS011;494;48.744;10.106;2023-02-05T04:39:09;18.17;;;8.30;;
1010;SDS011;494;48.744;10.106;2023-02-05T04:41:38;18.08;;;8.52;;
1010;SDS011;494;48.744;10.106;2023-02-05T04:44:06;21.40;;;8.85;;
1010;SDS011;494;48.744;10.106;2023-02-05T04:46:35;17.02;;;8.45;;
1010;SDS011;494;48.744;10.106;2023-02-05T04:49:03;14.50;;;5.80;;
1010;SDS011;494;48.744;10.106;2023-02-05T04:51:32;12.88;;;5.50;;
1010;SDS011;494;48.744;10.106;2023-02-05T04:54:02;13.30;;;5.18;;
1010;SDS011;494;48.744;10.106;2023-02-05T04:56:31;16.08;;;7.05;;
1010;SDS011;494;48.744;10.106;2023-02-05T04:58:59;18.85;;;8.55;;
1010;SDS011;494;48.744;10.106;2023-02-05T05:01:28;20.25;;;9.55;;
1010;SDS011;494;48.744;10.106;2023-02-05T05:03:57;16.90;;;8.00;;
1010;SDS011;494;48.744;10.106;2023-02-05T05:06:25;18.45;;;8.75;;
1010;SDS011;494;48.744;10.106;2023-02-05T05:08:54;20.95;;;9.13;;
1010;SDS011;494;48.744;10.106;2023-02-05T05:11:24;21.50;;;9.90;;
1010;SDS011;494;48.744;10.106;2023-02-05T05:13:52;20.33;;;9.25;;
1010;SDS011;494;48.744;10.106;2023-02-05T05:16:21;21.90;;;9.93;;
1010;SDS011;494;48.744;10.106;2023-02-05T05:18:50;21.00;;;10.43;;
1010;SDS011;494;48.744;10.106;2023-02-05T05:21:19;22.00;;;10.20;;
1010;SDS011;494;48.744;10.106;2023-02-05T05:23:47;23.17;;;10.68;;
1010;SDS011;494;48.744;10.106;2023-02-05T05:26:16;21.85;;;10.38;;
1010;SDS011;494;48.744;10.106;2023-02-05T05:28:46;20.02;;;9.85;;
1010;SDS011;494;48.744;10.106;2023-02-05T05:31:18;21.95;;;9.95;;
1010;SDS011;494;48.744;10.106;2023-02-05T05:33:48;21.60;;;9.45;;
1010;SDS011;494;48.744;10.106;2023-02-05T05:36:17;18.98;;;9.57;;
1010;SDS011;494;48.744;10.106;2023-02-05T05:38:46;17.48;;;9.38;;
1010;SDS011;494;48.744;10.106;2023-02-05T05:41:17;20.42;;;10.25;;
1010;SDS011;494;48.744;10.106;2023-02-05T05:44:07;18.45;;;9.52;;
1010;SDS011;494;48.744;10.106;2023-02-05T05:46:37;22.02;;;9.90;;
1010;SDS011;494;48.744;10.106;2023-02-05T05:49:06;19.00;;;9.20;;
1010;SDS011;494;48.744;10.106;2023-02-05T05:51:34;21.20;;;10.52;;
1010;SDS011;494;48.744;10.106;2023-02-05T05:54:03;21.08;;;10.07;;
1010;SDS011;494;48.744;10.106;2023-02-05T05:56:32;19.38;;;9.60;;
1010;SDS011;494;48.744;10.106;2023-02-05T05:59:01;17.42;;;9.70;;
1010;SDS011;494;48.744;10.106;2023-02-05T06:01:31;17.55;;;9.10;;
1010;SDS011;494;48.744;10.106;2023-02-05T06:03:59;20.25;;;9.82;;
1010;SDS011;494;48.744;10.106;2023-02-05T06:06:29;22.25;;;10.57;;
1010;SDS011;494;48.744;10.106;2023-02-05T06:08:58;22.20;;;11.85;;
1010;SDS011;494;48.744;10.106;2023-02-05T06:11:26;27.67;;;13.73;;
1010;SDS011;494;48.744;10.106;2023-02-05T06:13:55;21.70;;;10.80;;
1010;SDS011;494;48.744;10.106;2023-02-05T06:16:24;19.25;;;10.18;;
1010;SDS011;494;48.744;10.106;2023-02-05T06:18:54;20.25;;;9.75;;
1010;SDS011;494;48.744;10.106;2023-02-05T06:21:23;18.65;;;9.07;;
1010;SDS011;494;48.744;10.106;2023-02-05T06:23:51;18.17;;;8.82;;
1010;SDS011;494;48.744;10.106;2023-02-05T06:26:20;18.17;;;10.25;;
1010;SDS011;494;48.744;10.106;2023-02-05T06:28:49;20.83;;;9.85;;
1010;SDS011;494;48.744;10.106;2023-02-05T06:31:18;18.42;;;9.80;;
1010;SDS011;494;48.744;10.106;2023-02-05T06:33:46;19.05;;;8.85;;
1010;SDS011;494;48.744;10.106;2023-02-05T06:36:16;18.50;;;8.90;;
1010;SDS011;494;48.744;10.106;2023-02-05T06:38:45;18.30;;;9.13;;
1010;SDS011;494;48.744;10.106;2023-02-05T06:41:14;17.30;;;8.45;;
1010;SDS011;494;48.744;10.106;2023-02-05T06:43:42;19.55;;;9.07;;
1010;SDS011;494;48.744;10.106;2023-02-05T06:46:12;19.00;;;9.18;;
1010;SDS011;494;48.744;10.106;2023-02-05T06:48:41;19.00;;;8.77;;
1010;SDS011;494;48.744;10.106;2023-02-05T06:51:10;18.02;;;8.90;;
1010;SDS011;494;48.744;10.106;2023-02-05T06:53:40;16.80;;;8.60;;
1010;SDS011;494;48.744;10.106;2023-02-05T06:56:09;17.00;;;8.57;;
1010;SDS011;494;48.744;10.106;2023-02-05T06:58:37;17.92;;;9.43;;
1010;SDS011;494;48.744;10.106;2023-02-05T07:01:06;17.13;;;8.75;;
1010;SDS011;494;48.744;10.106;2023-02-05T07:03:35;16.60;;;9.00;;
1010;SDS011;494;48.744;10.106;2023-02-05T07:06:04;14.45;;;7.45;;
1010;SDS011;494;48.744;10.106;2023-02-05T07:08:34;16.35;;;8.15;;
1010;SDS011;494;48.744;10.106;2023-02-05T07:11:04;17.52;;;8.63;;
1010;SDS011;494;48.744;10.106;2023-02-05T07:13:33;19.60;;;9.45;;
1010;SDS011;494;48.744;10.106;2023-02-05T07:16:02;18.05;;;9.02;;
1010;SDS011;494;48.744;10.106;2023-02-05T07:18:31;15.73;;;8.65;;
1010;SDS011;494;48.744;10.106;2023-02-05T07:21:03;15.90;;;9.07;;
1010;SDS011;494;48.744;10.106;2023-02-05T07:23:33;17.58;;;8.60;;
1010;SDS011;494;48.744;10.106;2023-02-05T07:26:07;16.88;;;9.00;;
1010;SDS011;494;48.744;10.106;2023-02-05T07:28:37;18.63;;;9.82;;
1010;SDS011;494;48.744;10.106;2023-02-05T07:31:08;19.27;;;9.48;;
1010;SDS011;494;48.744;10.106;2023-02-05T07:33:40;16.17;;;9.07;;
1010;SDS011;494;48.744;10.106;2023-02-05T07:36:10;15.85;;;9.20;;
1010;SDS011;494;48.744;10.106;2023-02-05T07:38:42;16.13;;;8.57;;
1010;SDS011;494;48.744;10.106;2023-02-05T07:41:14;16.23;;;8.93;;
1010;SDS011;494;48.744;10.106;2023-02-05T07:43:43;17.45;;;9.45;;
1010;SDS011;494;48.744;10.106;2023-02-05T07:46:12;16.30;;;9.38;;
1010;SDS011;494;48.744;10.106;2023-02-05T07:48:41;18.50;;;10.35;;
1010;SDS011;494;48.744;10.106;2023-02-05T07:51:13;23.65;;;15.20;;
1010;SDS011;494;48.744;10.106;2023-02-05T07:53:44;21.50;;;11.65;;
1010;SDS011;494;48.744;10.106;2023-02-05T07:56:15;21.42;;;12.13;;
1010;SDS011;494;48.744;10.106;2023-02-05T07:58:47;23.10;;;12.30;;
1010;SDS011;494;48.744;10.106;2023-02-05T08:01:15;23.70;;;12.40;;
1010;SDS011;494;48.744;10.106;2023-02-05T08:03:45;29.40;;;15.17;;
1010;SDS011;494;48.744;10.106;2023-02-05T08:06:14;33.23;;;18.37;;
1010;SDS011;494;48.744;10.106;2023-02-05T08:08:43;24.10;;;13.13;;
1010;SDS011;494;48.744;10.106;2023-02-05T08:11:12;20.17;;;11.53;;
1010;SDS011;494;48.744;10.106;2023-02-05T08:13:44;21.70;;;11.65;;
1010;SDS011;494;48.744;10.106;2023-02-05T08:16:13;22.90;;;12.85;;
1010;SDS011;494;48.744;10.106;2023-02-05T08:18:42;21.55;;;11.48;;
1010;SDS011;494;48.744;10.106;2023-02-05T08:21:15;22.88;;;12.50;;
1010;SDS011;494;48.744;10.106;2023-02-05T08:23:45;22.23;;;11.90;;
1010;SDS011;494;48.744;10.106;2023-02-05T08:26:15;21.48;;;12.15;;
1010;SDS011;494;48.744;10.106;2023-02-05T08:28:44;33.10;;;18.95;;
1010;SDS011;494;48.744;10.106;2023-02-05T08:31:14;34.17;;;18.60;;
1010;SDS011;494;48.744;10.106;2023-02-05T08:33:45;31.80;;;18.53;;
1010;SDS011;494;48.744;10.106;2023-02-05T08:36:16;31.23;;;17.80;;
1010;SDS011;494;48.744;10.106;2023-02-05T08:38:45;27.20;;;16.77;;
1010;SDS011;494;48.744;10.106;2023-02-05T08:41:15;28.93;;;16.63;;
1010;SDS011;494;48.744;10.106;2023-02-05T08:43:45;32.83;;;18.03;;
1010;SDS011;494;48.744;10.106;2023-02-05T08:46:16;32.97;;;18.20;;
1010;SDS011;494;48.744;10.106;2023-02-05T08:48:49;33.63;;;19.33;;
1010;SDS011;494;48.744;10.106;2023-02-05T08:51:19;28.00;;;17.27;;
1010;SDS011;494;48.744;10.106;2023-02-05T08:53:49;26.93;;;16.63;;
1010;SDS011;494;48.744;10.106;2023-02-05T08:56:20;25.57;;;15.67;;
1010;SDS011;494;48.744;10.106;2023-02-05T08:58:48;25.87;;;15.23;;
1010;SDS011;494;48.744;10.106;2023-02-05T09:01:17;24.17;;;15.50;;
1010;SDS011;494;48.744;10.106;2023-02-05T09:04:03;25.10;;;15.37;;
1010;SDS011;494;48.744;10.106;2023-02-05T09:06:43;24.47;;;14.50;;
1010;SDS011;494;48.744;10.106;2023-02-05T09:09:21;22.07;;;14.43;;
1010;SDS011;494;48.744;10.106;2023-02-05T09:11:54;26.20;;;15.13;;
1010;SDS011;494;48.744;10.106;2023-02-05T09:14:28;25.17;;;15.07;;
1010;SDS011;494;48.744;10.106;2023-02-05T09:17:03;25.63;;;15.80;;
1010;SDS011;494;48.744;10.106;2023-02-05T09:19:40;28.23;;;17.50;;
1010;SDS011;494;48.744;10.106;2023-02-05T09:22:12;28.95;;;17.92;;
1010;SDS011;494;48.744;10.106;2023-02-05T09:24:45;28.25;;;18.88;;
1010;SDS011;494;48.744;10.106;2023-02-05T09:27:18;34.65;;;18.98;;
1010;SDS011;494;48.744;10.106;2023-02-05T09:29:47;30.25;;;18.20;;
1010;SDS011;494;48.744;10.106;2023-02-05T09:32:22;29.42;;;18.33;;
1010;SDS011;494;48.744;10.106;2023-02-05T09:34:56;34.08;;;17.92;;
1010;SDS011;494;48.744;10.106;2023-02-05T09:37:34;31.23;;;18.77;;
1010;SDS011;494;48.744;10.106;2023-02-05T09:40:09;31.48;;;18.42;;
1010;SDS011;494;48.744;10.106;2023-02-05T09:43:02;34.17;;;19.70;;
1010;SDS011;494;48.744;10.106;2023-02-05T09:45:54;35.58;;;19.60;;
1010;SDS011;494;48.744;10.106;2023-02-05T09:48:46;31.27;;;17.50;;
1010;SDS011;494;48.744;10.106;2023-02-05T09:51:22;31.70;;;18.85;;
1010;SDS011;494;48.744;10.106;2023-02-05T09:54:05;35.20;;;19.97;;
1010;SDS011;494;48.744;10.106;2023-02-05T09:56:43;30.33;;;18.50;;
1010;SDS011;494;48.744;10.106;2023-02-05T09:59:17;34.30;;;19.73;;
1010;SDS011;494;48.744;10.106;2023-02-05T10:01:50;31.43;;;19.70;;
1010;SDS011;494;48.744;10.106;2023-02-05T10:04:22;30.47;;;19.63;;
1010;SDS011;494;48.744;10.106;2023-02-05T10:09:59;29.50;;;18.50;;
1010;SDS011;494;48.744;10.106;2023-02-05T10:12:55;29.10;;;18.50;;
1010;SDS011;494;48.744;10.106;2023-02-05T10:19:24;28.73;;;18.67;;
1010;SDS011;494;48.744;10.106;2023-02-05T10:22:21;32.17;;;19.00;;
1010;SDS011;494;48.744;10.106;2023-02-05T10:25:01;29.00;;;18.80;;
1010;SDS011;494;48.744;10.106;2023-02-05T10:27:55;31.95;;;20.08;;
1010;SDS011;494;48.744;10.106;2023-02-05T10:30:39;30.90;;;18.87;;
1010;SDS011;494;48.744;10.106;2023-02-05T10:33:22;31.15;;;19.65;;
1010;SDS011;494;48.744;10.106;2023-02-05T10:36:08;31.90;;;21.20;;
1010;SDS011;494;48.744;10.106;2023-02-05T10:38:40;33.30;;;20.90;;
1010;SDS011;494;48.744;10.106;2023-02-05T10:41:12;40.17;;;25.57;;
1010;SDS011;494;48.744;10.106;2023-02-05T10:43:50;43.40;;;23.77;;
1010;SDS011;494;48.744;10.106;2023-02-05T10:46:31;33.53;;;21.75;;
1010;SDS011;494;48.744;10.106;2023-02-05T10:49:05;45.97;;;27.53;;
1010;SDS011;494;48.744;10.106;2023-02-05T10:51:40;43.07;;;25.23;;
1010;SDS011;494;48.744;10.106;2023-02-05T10:54:14;39.80;;;22.20;;
1010;SDS011;494;48.744;10.106;2023-02-05T10:56:49;36.53;;;22.63;;
1010;SDS011;494;48.744;10.106;2023-02-05T10:59:21;33.10;;;20.97;;
1010;SDS011;494;48.744;10.106;2023-02-05T11:01:56;39.90;;;22.77;;
1010;SDS011;494;48.744;10.106;2023-02-05T11:04:44;35.70;;;23.53;;
1010;SDS011;494;48.744;10.106;2023-02-05T11:07:24;45.47;;;26.00;;
1010;SDS011;494;48.744;10.106;2023-02-05T11:10:16;39.40;;;25.80;;
1010;SDS011;494;48.744;10.106;2023-02-05T11:13:02;38.23;;;25.40;;
1010;SDS011;494;48.744;10.106;2023-02-05T11:15:53;40.93;;;25.67;;
1010;SDS011;494;48.744;10.106;2023-02-05T11:18:32;41.50;;;25.57;;
1010;SDS011;494;48.744;10.106;2023-02-05T11:21:08;40.33;;;26.80;;
1010;SDS011;494;48.744;10.106;2023-02-05T11:23:38;38.60;;;25.17;;
1010;SDS011;494;48.744;10.106;2023-02-05T11:26:26;40.43;;;27.97;;
1010;SDS011;494;48.744;10.106;2023-02-05T11:29:17;44.83;;;29.47;;
1010;SDS011;494;48.744;10.106;2023-02-05T11:31:54;41.57;;;27.27;;
1010;SDS011;494;48.744;10.106;2023-02-05T11:34:27;48.50;;;30.00;;
1010;SDS011;494;48.744;10.106;2023-02-05T11:36:58;44.17;;;29.07;;
1010;SDS011;494;48.744;10.106;2023-02-05T11:39:33;39.40;;;27.83;;
1010;SDS011;494;48.744;10.106;2023-02-05T11:42:18;39.83;;;26.93;;
1010;SDS011;494;48.744;10.106;2023-02-05T11:44:55;41.83;;;27.23;;
1010;SDS011;494;48.744;10.106;2023-02-05T11:47:28;40.20;;;27.30;;
1010;SDS011;494;48.744;10.106;2023-02-05T11:50:03;46.77;;;28.93;;
1010;SDS011;494;48.744;10.106;2023-02-05T11:52:50;51.83;;;29.60;;
1010;SDS011;494;48.744;10.106;2023-02-05T11:55:24;44.97;;;28.77;;
1010;SDS011;494;48.744;10.106;2023-02-05T11:57:57;43.67;;;28.40;;
1010;SDS011;494;48.744;10.106;2023-02-05T12:00:29;47.20;;;31.13;;
1010;SDS011;494;48.744;10.106;2023-02-05T12:03:04;47.97;;;31.37;;
1010;SDS011;494;48.744;10.106;2023-02-05T12:05:46;50.37;;;30.23;;
1010;SDS011;494;48.744;10.106;2023-02-05T12:08:25;48.30;;;31.83;;
1010;SDS011;494;48.744;10.106;2023-02-05T12:11:07;44.73;;;30.80;;
1010;SDS011;494;48.744;10.106;2023-02-05T12:14:22;45.23;;;31.10;;
1010;SDS011;494;48.744;10.106;2023-02-05T12:17:06;46.53;;;30.73;;
1010;SDS011;494;48.744;10.106;2023-02-05T12:20:00;44.63;;;30.13;;
1010;SDS011;494;48.744;10.106;2023-02-05T12:22:49;42.00;;;30.10;;
1010;SDS011;494;48.744;10.106;2023-02-05T12:25:36;46.30;;;31.77;;
1010;SDS011;494;48.744;10.106;2023-02-05T12:28:22;50.03;;;31.23;;
1010;SDS011;494;48.744;10.106;2023-02-05T12:31:06;52.70;;;33.43;;
1010;SDS011;494;48.744;10.106;2023-02-05T12:33:55;51.80;;;31.80;;
1010;SDS011;494;48.744;10.106;2023-02-05T12:36:45;50.03;;;32.67;;
1010;SDS011;494;48.744;10.106;2023-02-05T12:39:35;51.27;;;32.63;;
1010;SDS011;494;48.744;10.106;2023-02-05T12:42:19;52.33;;;31.77;;
1010;SDS011;494;48.744;10.106;2023-02-05T12:45:01;52.80;;;33.10;;
1010;SDS011;494;48.744;10.106;2023-02-05T12:47:57;63.03;;;35.07;;
1010;SDS011;494;48.744;10.106;2023-02-05T12:50:47;54.10;;;33.53;;
1010;SDS011;494;48.744;10.106;2023-02-05T12:53:36;48.40;;;32.73;;
1010;SDS011;494;48.744;10.106;2023-02-05T12:56:41;54.00;;;32.93;;
1010;SDS011;494;48.744;10.106;2023-02-05T12:59:29;57.30;;;34.80;;
1010;SDS011;494;48.744;10.106;2023-02-05T13:02:14;56.40;;;34.87;;
1010;SDS011;494;48.744;10.106;2023-02-05T13:04:56;58.23;;;36.30;;
1010;SDS011;494;48.744;10.106;2023-02-05T13:07:40;57.33;;;36.13;;
1010;SDS011;494;48.744;10.106;2023-02-05T13:10:14;59.10;;;37.30;;
1010;SDS011;494;48.744;10.106;2023-02-05T13:12:56;61.83;;;37.87;;
1010;SDS011;494;48.744;10.106;2023-02-05T13:15:33;64.53;;;39.57;;
1010;SDS011;494;48.744;10.106;2023-02-05T13:18:13;60.63;;;36.20;;
1010;SDS011;494;48.744;10.106;2023-02-05T13:20:48;58.30;;;38.20;;
1010;SDS011;494;48.744;10.106;2023-02-05T13:23:49;60.17;;;36.80;;
1010;SDS011;494;48.744;10.106;2023-02-05T13:26:41;60.63;;;37.57;;
1010;SDS011;494;48.744;10.106;2023-02-05T13:29:33;61.67;;;37.90;;
1010;SDS011;494;48.744;10.106;2023-02-05T13:32:18;59.60;;;38.50;;
1010;SDS011;494;48.744;10.106;2023-02-05T13:34:56;56.57;;;36.53;;
1010;SDS011;494;48.744;10.106;2023-02-05T13:37:32;66.17;;;39.80;;
1010;SDS011;494;48.744;10.106;2023-02-05T13:40:30;59.27;;;38.50;;
1010;SDS011;494;48.744;10.106;2023-02-05T13:43:29;61.17;;;38.13;;
1010;SDS011;494;48.744;10.106;2023-02-05T13:46:39;63.20;;;37.90;;
1010;SDS011;494;48.744;10.106;2023-02-05T13:49:41;62.67;;;38.20;;
1010;SDS011;494;48.744;10.106;2023-02-05T13:59:00;60.57;;;37.80;;
1010;SDS011;494;48.744;10.106;2023-02-05T14:01:32;67.47;;;39.63;;
1010;SDS011;494;48.744;10.106;2023-02-05T14:04:16;64.40;;;39.73;;
1010;SDS011;494;48.744;10.106;2023-02-05T14:07:00;81.13;;;42.97;;
1010;SDS011;494;48.744;10.106;2023-02-05T14:09:33;87.93;;;46.90;;
1010;SDS011;494;48.744;10.106;2023-02-05T14:12:07;96.87;;;51.13;;
1010;SDS011;494;48.744;10.106;2023-02-05T14:15:21;84.50;;;46.47;;
1010;SDS011;494;48.744;10.106;2023-02-05T14:24:38;72.00;;;47.40;;
1010;SDS011;494;48.744;10.106;2023-02-05T14:30:44;66.23;;;41.03;;
1010;SDS011;494;48.744;10.106;2023-02-05T14:33:30;66.47;;;41.27;;
1010;SDS011;494;48.744;10.106;2023-02-05T14:39:19;58.90;;;37.70;;
1010;SDS011;494;48.744;10.106;2023-02-05T14:41:58;61.80;;;39.30;;
1010;SDS011;494;48.744;10.106;2023-02-05T14:44:33;54.40;;;33.80;;
1010;SDS011;494;48.744;10.106;2023-02-05T14:47:07;69.20;;;44.90;;
1010;SDS011;494;48.744;10.106;2023-02-05T14:49:49;67.80;;;43.37;;
1010;SDS011;494;48.744;10.106;2023-02-05T14:52:22;60.43;;;39.80;;
1010;SDS011;494;48.744;10.106;2023-02-05T14:54:58;55.70;;;36.23;;
1010;SDS011;494;48.744;10.106;2023-02-05T14:57:38;52.87;;;33.80;;
1010;SDS011;494;48.744;10.106;2023-02-05T15:00:21;51.30;;;33.47;;
1010;SDS011;494;48.744;10.106;2023-02-05T15:05:58;54.97;;;35.73;;
1010;SDS011;494;48.744;10.106;2023-02-05T15:08:41;64.23;;;36.07;;
1010;SDS011;494;48.744;10.106;2023-02-05T15:11:23;64.03;;;38.47;;
1010;SDS011;494;48.744;10.106;2023-02-05T15:20:22;55.10;;;33.00;;
1010;SDS011;494;48.744;10.106;2023-02-05T15:23:00;56.73;;;34.57;;
1010;SDS011;494;48.744;10.106;2023-02-05T15:25:44;68.97;;;40.20;;
1010;SDS011;494;48.744;10.106;2023-02-05T15:28:26;61.60;;;37.97;;
1010;SDS011;494;48.744;10.106;2023-02-05T15:31:08;58.10;;;36.63;;
1010;SDS011;494;48.744;10.106;2023-02-05T15:34:32;64.13;;;38.90;;
1010;SDS011;494;48.744;10.106;2023-02-05T15:37:16;60.20;;;36.30;;
1010;SDS011;494;48.744;10.106;2023-02-05T15:39:58;62.10;;;37.10;;
1010;SDS011;494;48.744;10.106;2023-02-05T15:42:45;54.87;;;33.13;;
1010;SDS011;494;48.744;10.106;2023-02-05T15:45:24;59.00;;;34.83;;
1010;SDS011;494;48.744;10.106;2023-02-05T15:47:56;66.47;;;37.60;;
1010;SDS011;494;48.744;10.106;2023-02-05T15:50:34;67.37;;;39.87;;
1010;SDS011;494;48.744;10.106;2023-02-05T15:53:17;73.07;;;40.70;;
1010;SDS011;494;48.744;10.106;2023-02-05T15:56:07;62.33;;;36.67;;
1010;SDS011;494;48.744;10.106;2023-02-05T15:58:44;64.50;;;36.70;;
1010;SDS011;494;48.744;10.106;2023-02-05T16:01:22;59.43;;;35.40;;
1010;SDS011;494;48.744;10.106;2023-02-05T16:03:54;60.97;;;36.20;;
1010;SDS011;494;48.744;10.106;2023-02-05T16:06:23;59.47;;;35.30;;
1010;SDS011;494;48.744;10.106;2023-02-05T16:08:55;67.77;;;37.47;;
1010;SDS011;494;48.744;10.106;2023-02-05T16:11:25;61.40;;;35.67;;
1010;SDS011;494;48.744;10.106;2023-02-05T16:14:02;62.93;;;36.80;;
1010;SDS011;494;48.744;10.106;2023-02-05T16:16:35;57.23;;;34.57;;
1010;SDS011;494;48.744;10.106;2023-02-05T16:19:11;51.97;;;33.00;;